Rivalry Rage 5K - ASU vs UA

Tempe, AZ

Race Results

5K

Saturday, Nov 21, 2015

Results are: Unofficial

Participants 313
Finishers 271
Pace 10:20/mile
Average Time 00:32:03
 
 
Place Name Sex Sex Place Age Age Place Chip Time Pace
1 Zach Nollette (# 184) M 1 19 1 / 29 00:15:17 4:55/mile
2 Nick Yeager (# 244) M 2 28 2 / 29 00:16:36 5:21/mile
3 J Kindle (# 876) M 3 32 1 / 22 00:17:24 5:36/mile
4 Chase Jankowski (# 193) M 4 13 1 / 8 00:17:48 5:44/mile
5 Brian Skeet (# 109) M 5 29 3 / 29 00:18:22 5:55/mile
6 SARA NAZEMI (# 201) F 1 35 1 / 59 00:18:29 5:57/mile
7 Marty DeWitt (# 78) M 6 18 2 / 8 00:18:38 6:00/mile
8 Jonan Ortiz (# 890) M 7 13 3 / 8 00:19:00 6:07/mile
9 Hannah Dalsing (# 253) F 2 23 1 / 60 00:19:00 6:07/mile
10 Chris Long (# 278) M 8 27 4 / 29 00:19:11 6:10/mile
11 Jayson Tsingine (# 210) M 9 40 1 / 17 00:19:27 6:16/mile
12 Sean Bateman (# 215) M 10 32 2 / 22 00:19:44 6:21/mile
13 Daniel Huleatt (# 122) M 11 27 5 / 29 00:19:52 6:24/mile
14 Zack Irvine (# 3) M 12 41 2 / 17 00:20:06 6:28/mile
15 Michael Samuels (# 236) M 13 51 3 / 17 00:20:12 6:30/mile
16 Drew Wootton (# 874) M 14 17 4 / 8 00:20:16 6:32/mile
17 Rochelle Ryan (# 198) F 3 46 1 / 40 00:20:17 6:32/mile
18 Stanford Lake (# 880) M 15 39 3 / 22 00:20:37 6:38/mile
19 Ameera Aladimi (# 189) F 4 26 2 / 60 00:20:47 6:41/mile
20 Victor Van Zijll de Jong (# 113) M 16 27 6 / 29 00:20:54 6:44/mile
    Page:     Next >   Last >>